createdAt,value
2019-01-12T00:00:03.687Z,20.70
2019-01-12T00:03:19.786Z,20.70
2019-01-12T00:06:35.543Z,20.70
2019-01-12T00:09:50.903Z,20.60
2019-01-12T00:16:23.895Z,20.60
2019-01-12T00:19:39.063Z,20.60
2019-01-12T00:22:54.314Z,20.60
2019-01-12T00:26:10.424Z,20.60
2019-01-12T00:29:26.418Z,20.60
2019-01-12T00:32:42.430Z,20.60
2019-01-12T00:35:57.663Z,20.60
2019-01-12T00:39:12.858Z,20.60
2019-01-12T00:42:28.693Z,20.60
2019-01-12T00:45:44.688Z,20.50
2019-01-12T00:49:00.683Z,20.60
2019-01-12T00:52:16.672Z,20.60
2019-01-12T00:55:32.630Z,20.50
2019-01-12T00:58:48.657Z,20.50
2019-01-12T01:02:04.773Z,20.50
2019-01-12T01:05:20.922Z,20.50
2019-01-12T01:08:36.866Z,20.50
2019-01-12T01:11:52.927Z,20.50
2019-01-12T01:15:08.966Z,20.50
2019-01-12T01:18:24.634Z,20.50
2019-01-12T01:21:40.470Z,20.50
2019-01-12T01:24:56.534Z,20.50
2019-01-12T01:28:12.487Z,20.50
2019-01-12T01:31:28.270Z,20.50
2019-01-12T01:34:43.478Z,20.50
2019-01-12T01:37:59.434Z,20.50
2019-01-12T01:41:13.015Z,20.50
2019-01-12T01:44:35.699Z,20.50
2019-01-12T01:47:50.950Z,20.50
2019-01-12T01:51:06.998Z,20.50
2019-01-12T01:54:22.756Z,20.40
2019-01-12T01:57:38.143Z,20.40
2019-01-12T02:00:54.154Z,20.40
2019-01-12T02:04:10.079Z,20.50
2019-01-12T02:07:26.154Z,20.40
2019-01-12T02:10:42.196Z,20.40
2019-01-12T02:13:57.854Z,20.40
2019-01-12T02:17:13.694Z,20.40
2019-01-12T02:20:29.374Z,20.40
2019-01-12T02:23:44.905Z,20.50
2019-01-12T02:27:00.770Z,20.40
2019-01-12T02:30:16.780Z,20.40
2019-01-12T02:33:32.632Z,20.40
2019-01-12T02:36:48.651Z,20.40
2019-01-12T02:40:04.641Z,20.40
2019-01-12T02:43:20.525Z,20.40
2019-01-12T02:46:36.329Z,20.40
2019-01-12T02:49:49.910Z,20.40
2019-01-12T02:53:05.442Z,20.40
2019-01-12T02:56:20.681Z,20.40
2019-01-12T02:59:36.307Z,20.40
2019-01-12T03:02:52.226Z,20.40
2019-01-12T03:06:07.969Z,20.40
2019-01-12T03:09:23.977Z,20.40
2019-01-12T03:12:40.056Z,20.40
2019-01-12T03:15:55.378Z,20.40
2019-01-12T03:19:11.338Z,20.30
2019-01-12T03:22:27.124Z,20.40
2019-01-12T03:25:43.211Z,20.40
2019-01-12T03:28:58.321Z,20.40
2019-01-12T03:32:14.118Z,20.40
2019-01-12T03:35:29.962Z,20.40
2019-01-12T03:38:45.780Z,20.40
2019-01-12T03:42:01.519Z,20.40
2019-01-12T03:45:17.554Z,20.40
2019-01-12T03:48:31.197Z,20.40
2019-01-12T03:51:53.883Z,20.40
2019-01-12T03:55:09.368Z,20.40
2019-01-12T03:58:24.623Z,20.40
2019-01-12T04:01:39.839Z,20.40
2019-01-12T04:04:55.026Z,20.40
2019-01-12T04:08:11.053Z,20.40
2019-01-12T04:11:24.619Z,20.40
2019-01-12T04:14:47.297Z,20.30
2019-01-12T04:18:03.159Z,20.40
2019-01-12T04:21:19.008Z,20.40
2019-01-12T04:27:52.382Z,20.30
2019-01-12T04:31:07.610Z,20.30
2019-01-12T04:34:23.245Z,20.30
2019-01-12T04:37:39.048Z,20.30
2019-01-12T04:40:54.833Z,20.30
2019-01-12T04:44:10.480Z,20.30
2019-01-12T04:47:26.567Z,20.30
2019-01-12T04:50:42.549Z,20.30
2019-01-12T04:53:58.642Z,20.30
2019-01-12T04:57:14.519Z,20.30
2019-01-12T05:00:30.322Z,20.30
2019-01-12T05:03:45.937Z,20.30
2019-01-12T05:07:01.987Z,20.30
2019-01-12T05:10:17.992Z,20.30
2019-01-12T05:13:33.906Z,20.30
2019-01-12T05:16:49.509Z,20.30
2019-01-12T05:20:05.583Z,20.30
2019-01-12T05:23:21.291Z,20.30
2019-01-12T05:26:37.294Z,20.30
2019-01-12T05:29:53.139Z,20.30
2019-01-12T05:33:08.382Z,20.30
2019-01-12T05:36:23.619Z,20.30
2019-01-12T05:39:39.441Z,20.30
2019-01-12T05:42:54.715Z,20.30
2019-01-12T05:46:10.546Z,20.30
2019-01-12T05:49:25.729Z,20.30
2019-01-12T05:52:41.031Z,20.30
2019-01-12T05:55:59.143Z,20.30
2019-01-12T05:59:14.623Z,20.30
2019-01-12T06:02:30.478Z,20.30
2019-01-12T06:05:45.737Z,20.30
2019-01-12T06:09:01.858Z,20.30
2019-01-12T06:12:17.796Z,20.30
2019-01-12T06:15:33.397Z,20.30
2019-01-12T06:18:49.558Z,20.30
2019-01-12T06:22:05.403Z,20.30
2019-01-12T06:25:21.323Z,20.30
2019-01-12T06:28:36.902Z,20.30
2019-01-12T06:31:52.927Z,20.30
2019-01-12T06:35:08.219Z,20.30
2019-01-12T06:38:23.510Z,20.30
2019-01-12T06:41:39.570Z,20.30
2019-01-12T06:44:56.564Z,20.30
2019-01-12T06:48:11.766Z,20.30
2019-01-12T06:51:25.335Z,20.30
2019-01-12T06:54:41.078Z,20.30
2019-01-12T06:57:57.085Z,19.50
2019-01-12T07:01:12.658Z,20.30
2019-01-12T07:04:28.719Z,20.30
2019-01-12T07:07:45.334Z,20.30
2019-01-12T07:11:01.143Z,20.30
2019-01-12T07:14:16.941Z,20.30
2019-01-12T07:17:32.775Z,20.20
2019-01-12T07:20:48.763Z,20.30
2019-01-12T07:24:04.459Z,20.30
2019-01-12T07:27:18.127Z,20.30
2019-01-12T07:30:34.091Z,20.30
2019-01-12T07:33:50.055Z,20.30
2019-01-12T07:37:05.233Z,20.30
2019-01-12T07:40:20.619Z,20.30
2019-01-12T07:43:35.784Z,20.30
2019-01-12T07:46:49.389Z,20.30
2019-01-12T07:50:04.815Z,20.30
2019-01-12T07:53:20.869Z,20.20
2019-01-12T07:56:36.607Z,20.30
2019-01-12T07:59:50.299Z,20.30
2019-01-12T08:03:12.987Z,20.20
2019-01-12T08:06:35.677Z,20.30
2019-01-12T08:09:58.381Z,20.20
2019-01-12T08:13:13.916Z,20.30
2019-01-12T08:16:29.163Z,20.30
2019-01-12T08:19:45.222Z,20.20
2019-01-12T08:23:01.041Z,20.30
2019-01-12T08:26:16.962Z,20.30
2019-01-12T08:33:05.342Z,20.30
2019-01-12T08:39:45.654Z,20.30
2019-01-12T08:43:01.671Z,20.30
2019-01-12T08:46:17.575Z,20.20
2019-01-12T08:49:32.875Z,20.30
2019-01-12T08:52:49.022Z,20.30
2019-01-12T08:56:04.296Z,20.30
2019-01-12T08:59:21.956Z,20.30
2019-01-12T09:02:37.725Z,20.30
2019-01-12T09:05:53.659Z,20.30
2019-01-12T09:09:09.198Z,20.30
2019-01-12T09:12:25.089Z,20.30
2019-01-12T09:15:40.286Z,20.30
2019-01-12T09:18:56.452Z,20.30
2019-01-12T09:22:11.863Z,20.30
2019-01-12T09:25:27.955Z,20.30
2019-01-12T09:28:44.042Z,20.30
2019-01-12T09:32:00.006Z,20.30
2019-01-12T09:35:15.951Z,20.30
2019-01-12T09:38:31.910Z,20.30
2019-01-12T09:41:47.834Z,20.30
2019-01-12T09:45:03.922Z,20.30
2019-01-12T09:48:19.267Z,20.30
2019-01-12T09:51:35.057Z,20.30
2019-01-12T09:54:50.314Z,20.30
2019-01-12T09:58:06.153Z,20.30
2019-01-12T10:01:21.956Z,20.30
2019-01-12T10:04:37.799Z,20.30
2019-01-12T10:07:53.278Z,20.30
2019-01-12T10:11:09.085Z,20.30
2019-01-12T10:14:25.160Z,20.30
2019-01-12T10:17:41.226Z,20.30
2019-01-12T10:24:28.307Z,20.40
2019-01-12T10:27:50.989Z,20.40
2019-01-12T10:31:06.279Z,20.40
2019-01-12T10:34:22.184Z,20.40
2019-01-12T10:37:37.412Z,20.40
2019-01-12T10:40:50.971Z,20.40
2019-01-12T10:44:13.671Z,20.40
2019-01-12T10:47:29.242Z,20.40
2019-01-12T10:50:42.950Z,20.40
2019-01-12T10:54:05.622Z,20.40
2019-01-12T10:57:21.446Z,20.40
2019-01-12T11:00:37.383Z,20.40
2019-01-12T11:03:53.466Z,20.40
2019-01-12T11:06:56.721Z,20.40
2019-01-12T11:10:41.053Z,20.40
2019-01-12T11:17:46.195Z,20.40
2019-01-12T11:21:02.258Z,20.40
2019-01-12T11:24:17.579Z,20.40
2019-01-12T11:27:33.621Z,20.40
2019-01-12T11:30:49.275Z,20.40
2019-01-12T11:34:04.653Z,20.40
2019-01-12T11:37:20.589Z,20.40
2019-01-12T11:40:35.899Z,20.40
2019-01-12T11:43:51.155Z,20.40
2019-01-12T11:47:06.878Z,20.40
2019-01-12T11:50:22.114Z,20.40
2019-01-12T11:53:38.271Z,20.40
2019-01-12T11:56:54.409Z,20.50
2019-01-12T12:00:09.747Z,20.50
2019-01-12T12:03:25.697Z,20.40
2019-01-12T12:06:41.638Z,20.50
2019-01-12T12:09:56.863Z,20.50
2019-01-12T12:13:12.043Z,20.50
2019-01-12T12:16:27.974Z,20.40
2019-01-12T12:19:43.982Z,20.40
2019-01-12T12:22:59.183Z,20.50
2019-01-12T12:26:18.154Z,20.50
2019-01-12T12:29:34.475Z,20.50
2019-01-12T12:32:51.863Z,20.50
2019-01-12T12:36:08.122Z,20.40
2019-01-12T12:39:24.137Z,20.50
2019-01-12T12:42:39.720Z,20.50
2019-01-12T12:45:55.714Z,20.50
2019-01-12T12:49:11.847Z,20.50
2019-01-12T12:52:27.303Z,20.50
2019-01-12T12:55:43.210Z,20.50
2019-01-12T12:58:59.622Z,20.50
2019-01-12T13:05:40.047Z,20.50
2019-01-12T13:12:13.314Z,20.50
2019-01-12T13:15:29.120Z,20.50
2019-01-12T13:18:45.014Z,20.50
2019-01-12T13:22:01.082Z,20.50
2019-01-12T13:25:17.147Z,20.50
2019-01-12T13:28:32.962Z,20.50
2019-01-12T13:31:48.878Z,20.50
2019-01-12T13:35:04.086Z,20.50
2019-01-12T13:38:20.186Z,20.50
2019-01-12T13:41:36.006Z,20.50
2019-01-12T13:44:51.807Z,20.50
2019-01-12T13:48:07.697Z,20.50
2019-01-12T13:51:23.039Z,20.50
2019-01-12T13:54:38.988Z,20.50
2019-01-12T13:57:55.191Z,20.50
2019-01-12T14:01:11.239Z,20.50
2019-01-12T14:04:27.105Z,20.50
2019-01-12T14:07:42.943Z,20.50
2019-01-12T14:10:58.615Z,20.50
2019-01-12T14:14:14.122Z,20.50
2019-01-12T14:17:29.954Z,20.50
2019-01-12T14:20:45.354Z,20.50
2019-01-12T14:27:18.894Z,20.50
2019-01-12T14:30:34.847Z,20.50
2019-01-12T14:33:51.128Z,20.50
2019-01-12T14:37:07.009Z,20.50
2019-01-12T14:40:22.745Z,20.60
2019-01-12T14:43:38.891Z,20.60
2019-01-12T14:46:54.682Z,20.60
2019-01-12T14:50:09.894Z,20.60
2019-01-12T14:53:25.111Z,20.60
2019-01-12T14:56:41.051Z,20.60
2019-01-12T14:59:54.678Z,20.70
2019-01-12T15:03:10.143Z,20.60
2019-01-12T15:06:26.151Z,20.60
2019-01-12T15:09:41.936Z,20.60
2019-01-12T15:12:57.155Z,20.70
2019-01-12T15:16:13.258Z,20.70
2019-01-12T15:19:29.192Z,20.70
2019-01-12T15:22:43.351Z,20.70
2019-01-12T15:26:06.122Z,20.80
2019-01-12T15:29:19.665Z,20.80
2019-01-12T15:32:42.375Z,20.80
2019-01-12T15:35:57.571Z,20.80
2019-01-12T15:39:13.616Z,20.90
2019-01-12T15:42:29.243Z,20.90
2019-01-12T15:45:45.250Z,21.00
2019-01-12T15:49:01.298Z,21.00
2019-01-12T15:52:16.565Z,21.00
2019-01-12T15:55:32.473Z,21.00
2019-01-12T15:58:47.699Z,21.10
2019-01-12T16:02:03.863Z,21.10
2019-01-12T16:05:19.801Z,21.10
2019-01-12T16:08:35.911Z,21.20
2019-01-12T16:11:51.838Z,21.20
2019-01-12T16:15:07.596Z,21.20
2019-01-12T16:18:23.631Z,21.30
2019-01-12T16:21:39.698Z,21.30
2019-01-12T16:24:54.929Z,21.30
2019-01-12T16:28:10.978Z,21.40
2019-01-12T16:31:26.929Z,21.40
2019-01-12T16:34:42.688Z,21.40
2019-01-12T16:37:58.835Z,21.50
2019-01-12T16:41:14.914Z,21.50
2019-01-12T16:44:31.090Z,21.50
2019-01-12T16:47:46.385Z,21.50
2019-01-12T16:51:02.230Z,21.50
2019-01-12T16:54:18.229Z,21.60
2019-01-12T16:57:33.446Z,21.60
2019-01-12T17:00:49.591Z,21.60
2019-01-12T17:04:05.713Z,21.70
2019-01-12T17:07:21.862Z,21.70
2019-01-12T17:14:24.538Z,21.70
2019-01-12T17:17:40.433Z,21.80
2019-01-12T17:20:55.698Z,21.80
2019-01-12T17:24:11.616Z,21.80
2019-01-12T17:27:26.872Z,21.80
2019-01-12T17:30:42.285Z,21.80
2019-01-12T17:33:58.446Z,21.90
2019-01-12T17:37:14.630Z,21.90
2019-01-12T17:40:30.752Z,21.90
2019-01-12T17:43:46.668Z,21.90
2019-01-12T17:47:02.425Z,22.00
2019-01-12T17:50:18.182Z,22.00
2019-01-12T17:53:33.386Z,22.00
2019-01-12T17:56:49.331Z,22.00
2019-01-12T18:00:05.380Z,22.00
2019-01-12T18:03:21.255Z,22.10
2019-01-12T18:06:36.531Z,22.10
2019-01-12T18:09:52.270Z,22.10
2019-01-12T18:13:08.319Z,22.10
2019-01-12T18:16:24.195Z,22.10
2019-01-12T18:19:39.527Z,22.10
2019-01-12T18:22:55.233Z,22.20
2019-01-12T18:26:11.006Z,22.20
2019-01-12T18:29:26.522Z,22.20
2019-01-12T18:32:42.546Z,22.20
2019-01-12T18:35:58.620Z,22.20
2019-01-12T18:39:14.689Z,22.20
2019-01-12T18:42:30.635Z,22.30
2019-01-12T18:45:46.416Z,22.30
2019-01-12T18:49:02.314Z,22.30
2019-01-12T18:52:18.437Z,22.30
2019-01-12T18:55:34.335Z,22.30
2019-01-12T18:58:50.354Z,22.30
2019-01-12T19:02:06.283Z,22.40
2019-01-12T19:05:21.876Z,22.30
2019-01-12T19:08:37.622Z,22.40
2019-01-12T19:11:53.525Z,22.40
2019-01-12T19:15:09.650Z,22.40
2019-01-12T19:18:25.574Z,22.40
2019-01-12T19:21:41.529Z,22.40
2019-01-12T19:24:57.539Z,22.40
2019-01-12T19:28:13.299Z,22.50
2019-01-12T19:31:29.318Z,22.50
2019-01-12T19:34:45.294Z,22.50
2019-01-12T19:38:01.379Z,22.50
2019-01-12T19:41:16.941Z,22.50
2019-01-12T19:44:32.330Z,22.50
2019-01-12T19:47:48.144Z,22.50
2019-01-12T19:51:03.399Z,22.60
2019-01-12T19:57:42.969Z,22.60
2019-01-12T20:00:58.815Z,22.50
2019-01-12T20:04:14.994Z,22.50
2019-01-12T20:10:48.306Z,22.60
2019-01-12T20:14:04.008Z,22.60
2019-01-12T20:17:19.264Z,22.60
2019-01-12T20:20:34.899Z,22.60
2019-01-12T20:23:50.354Z,22.60
2019-01-12T20:27:06.238Z,22.60
2019-01-12T20:30:21.882Z,22.70
2019-01-12T20:33:37.941Z,22.70
2019-01-12T20:36:53.857Z,22.60
2019-01-12T20:40:09.777Z,22.70
2019-01-12T20:43:25.847Z,22.70
2019-01-12T20:46:41.539Z,22.70
2019-01-12T20:49:57.614Z,22.70
2019-01-12T20:53:13.690Z,22.70
2019-01-12T20:56:29.533Z,22.70
2019-01-12T20:59:44.851Z,22.80
2019-01-12T21:03:00.862Z,22.80
2019-01-12T21:06:16.641Z,22.80
2019-01-12T21:09:31.859Z,22.80
2019-01-12T21:12:47.191Z,22.80
2019-01-12T21:16:03.195Z,22.80
2019-01-12T21:19:19.053Z,22.80
2019-01-12T21:22:34.326Z,22.80
2019-01-12T21:25:50.047Z,22.90
2019-01-12T21:29:03.670Z,22.90
2019-01-12T21:32:19.206Z,22.90
2019-01-12T21:35:34.663Z,22.90
2019-01-12T21:38:50.579Z,22.90
2019-01-12T21:42:06.715Z,22.90
2019-01-12T21:45:21.981Z,22.90
2019-01-12T21:48:37.122Z,22.90
2019-01-12T21:51:55.488Z,22.90
2019-01-12T21:55:11.317Z,22.90
2019-01-12T21:58:27.065Z,22.90
2019-01-12T22:05:07.263Z,22.90
2019-01-12T22:08:23.306Z,23.00
2019-01-12T22:11:39.219Z,23.00
2019-01-12T22:14:54.630Z,22.90
2019-01-12T22:18:10.582Z,22.90
2019-01-12T22:21:26.504Z,23.00
2019-01-12T22:24:40.069Z,23.00
2019-01-12T22:28:02.753Z,22.90
2019-01-12T22:31:18.523Z,22.90
2019-01-12T22:34:34.707Z,22.90
2019-01-12T22:37:50.897Z,22.90
2019-01-12T22:41:06.227Z,22.90
2019-01-12T22:44:21.494Z,22.90
2019-01-12T22:47:37.339Z,22.90
2019-01-12T22:50:53.304Z,22.80
2019-01-12T22:54:09.354Z,22.80
2019-01-12T22:57:25.451Z,22.80
2019-01-12T23:00:45.878Z,22.80
2019-01-12T23:04:01.099Z,22.70
2019-01-12T23:07:16.885Z,22.70
2019-01-12T23:10:32.815Z,22.70
2019-01-12T23:13:46.422Z,22.70
2019-01-12T23:17:01.928Z,22.60
2019-01-12T23:20:18.038Z,22.60
2019-01-12T23:23:34.026Z,22.60
2019-01-12T23:26:47.661Z,22.50
2019-01-12T23:30:29.766Z,22.50
2019-01-12T23:33:45.814Z,22.50
2019-01-12T23:37:01.314Z,22.40
2019-01-12T23:40:17.409Z,22.40
2019-01-12T23:43:33.510Z,22.40
2019-01-12T23:46:49.252Z,22.30
2019-01-12T23:50:05.341Z,22.30
2019-01-12T23:53:21.387Z,22.30
2019-01-12T23:56:35.010Z,22.20
2019-01-12T23:59:57.686Z,22.20
